createdAt,value
2018-12-12T00:02:18.459Z,0.70
2018-12-12T00:04:56.700Z,0.70
2018-12-12T00:07:34.030Z,0.80
2018-12-12T00:10:13.985Z,1.00
2018-12-12T00:12:51.685Z,1.00
2018-12-12T00:15:27.873Z,1.00
2018-12-12T00:20:28.187Z,1.00
2018-12-12T00:23:04.249Z,0.90
2018-12-12T00:25:40.027Z,0.90
2018-12-12T00:28:15.650Z,1.00
2018-12-12T00:30:51.677Z,1.00
2018-12-12T00:33:28.325Z,1.10
2018-12-12T00:36:04.297Z,1.10
2018-12-12T00:38:40.053Z,1.10
2018-12-12T00:41:15.636Z,1.10
2018-12-12T00:43:51.553Z,1.00
2018-12-12T00:46:29.105Z,0.90
2018-12-12T00:49:05.242Z,0.80
2018-12-12T00:51:41.402Z,0.80
2018-12-12T00:54:17.287Z,0.90
2018-12-12T00:56:53.038Z,0.90
2018-12-12T00:59:29.162Z,0.90
2018-12-12T01:02:05.044Z,0.90
2018-12-12T01:04:40.898Z,0.90
2018-12-12T01:07:17.221Z,0.90
2018-12-12T01:09:53.016Z,0.80
2018-12-12T01:12:29.557Z,0.70
2018-12-12T01:15:05.591Z,0.70
2018-12-12T01:17:41.765Z,0.80
2018-12-12T01:20:17.711Z,0.80
2018-12-12T01:22:53.625Z,0.80
2018-12-12T01:25:30.024Z,0.80
2018-12-12T01:28:06.321Z,0.90
2018-12-12T01:30:42.102Z,0.90
2018-12-12T01:33:18.427Z,0.90
2018-12-12T01:35:54.460Z,0.80
2018-12-12T01:38:30.581Z,0.80
2018-12-12T01:41:06.572Z,0.90
2018-12-12T01:43:42.379Z,0.90
2018-12-12T01:46:18.308Z,0.90
2018-12-12T01:48:54.106Z,1.00
2018-12-12T01:51:30.250Z,1.00
2018-12-12T01:54:06.324Z,1.10
2018-12-12T01:56:42.073Z,1.20
2018-12-12T01:59:17.729Z,1.20
2018-12-12T02:01:53.452Z,1.10
2018-12-12T02:04:29.995Z,1.20
2018-12-12T02:07:05.946Z,1.20
2018-12-12T02:09:41.828Z,1.20
2018-12-12T02:12:17.559Z,1.10
2018-12-12T02:14:53.483Z,1.10
2018-12-12T02:20:06.677Z,1.10
2018-12-12T02:22:43.762Z,1.00
2018-12-12T02:28:38.724Z,1.00
2018-12-12T02:31:14.591Z,0.90
2018-12-12T02:33:50.350Z,0.90
2018-12-12T02:36:26.402Z,1.00
2018-12-12T02:39:02.730Z,1.00
2018-12-12T02:41:39.760Z,1.00
2018-12-12T02:44:15.805Z,0.90
2018-12-12T02:46:51.991Z,1.00
2018-12-12T02:49:27.917Z,1.00
2018-12-12T02:52:03.976Z,1.00
2018-12-12T02:54:40.973Z,1.10
2018-12-12T02:57:16.712Z,1.10
2018-12-12T02:59:52.417Z,1.10
2018-12-12T03:02:28.272Z,1.20
2018-12-12T03:06:07.244Z,1.30
2018-12-12T03:08:43.289Z,1.30
2018-12-12T03:11:24.349Z,1.30
2018-12-12T03:14:01.150Z,1.30
2018-12-12T03:16:37.032Z,1.30
2018-12-12T03:19:12.981Z,1.30
2018-12-12T03:21:49.124Z,1.30
2018-12-12T03:24:24.894Z,1.20
2018-12-12T03:27:00.819Z,1.20
2018-12-12T03:29:36.721Z,1.20
2018-12-12T03:32:12.676Z,1.20
2018-12-12T03:34:48.882Z,1.30
2018-12-12T03:37:25.676Z,1.40
2018-12-12T03:40:01.793Z,1.40
2018-12-12T03:42:37.976Z,1.40
2018-12-12T03:45:13.978Z,1.40
2018-12-12T03:47:51.290Z,1.40
2018-12-12T03:50:27.028Z,1.40
2018-12-12T03:53:02.805Z,1.50
2018-12-12T03:55:38.551Z,1.50
2018-12-12T03:58:14.275Z,1.50
2018-12-12T04:00:50.035Z,1.50
2018-12-12T04:03:26.061Z,1.50
2018-12-12T04:06:01.713Z,1.50
2018-12-12T04:08:37.889Z,1.50
2018-12-12T04:11:14.120Z,1.50
2018-12-12T04:13:50.301Z,1.60
2018-12-12T04:16:26.578Z,1.60
2018-12-12T04:19:02.921Z,1.60
2018-12-12T04:21:40.813Z,1.50
2018-12-12T04:24:16.699Z,1.50
2018-12-12T04:26:52.421Z,1.60
2018-12-12T04:29:28.073Z,1.60
2018-12-12T04:32:04.798Z,1.60
2018-12-12T04:34:40.821Z,1.60
2018-12-12T04:37:16.540Z,1.50
2018-12-12T04:39:52.442Z,1.50
2018-12-12T04:42:28.438Z,1.40
2018-12-12T04:45:04.387Z,1.40
2018-12-12T04:47:40.161Z,1.50
2018-12-12T04:50:15.943Z,1.50
2018-12-12T04:52:51.744Z,1.50
2018-12-12T04:55:41.585Z,1.40
2018-12-12T04:58:21.398Z,1.30
2018-12-12T05:00:57.673Z,1.30
2018-12-12T05:03:33.449Z,1.20
2018-12-12T05:06:09.737Z,1.20
2018-12-12T05:08:45.707Z,1.20
2018-12-12T05:11:21.950Z,1.30
2018-12-12T05:13:58.257Z,1.30
2018-12-12T05:16:34.661Z,1.20
2018-12-12T05:19:10.615Z,1.20
2018-12-12T05:21:46.473Z,1.20
2018-12-12T05:24:22.081Z,1.20
2018-12-12T05:26:57.861Z,1.10
2018-12-12T05:29:33.652Z,1.10
2018-12-12T05:32:10.145Z,1.10
2018-12-12T05:34:47.330Z,1.00
2018-12-12T05:37:23.047Z,1.00
2018-12-12T05:39:58.907Z,0.90
2018-12-12T05:42:35.860Z,0.90
2018-12-12T05:45:11.557Z,0.80
2018-12-12T05:47:47.705Z,0.70
2018-12-12T05:50:23.737Z,0.60
2018-12-12T05:52:59.496Z,0.60
2018-12-12T05:55:35.546Z,0.50
2018-12-12T05:58:11.677Z,0.60
2018-12-12T06:00:47.200Z,0.50
2018-12-12T06:03:23.417Z,0.50
2018-12-12T06:05:59.152Z,0.40
2018-12-12T06:08:34.925Z,0.40
2018-12-12T06:11:10.956Z,0.30
2018-12-12T06:13:47.037Z,0.30
2018-12-12T06:16:23.118Z,0.30
2018-12-12T06:18:59.030Z,0.20
2018-12-12T06:21:34.756Z,0.20
2018-12-12T06:24:11.793Z,0.20
2018-12-12T06:26:47.892Z,0.20
2018-12-12T06:29:24.274Z,0.20
2018-12-12T06:31:59.926Z,0.20
2018-12-12T06:34:35.681Z,0.20
2018-12-12T06:37:11.533Z,0.20
2018-12-12T06:39:47.596Z,0.20
2018-12-12T06:42:23.640Z,0.10
2018-12-12T06:44:59.422Z,0.10
2018-12-12T06:47:35.136Z,0.20
2018-12-12T06:50:10.970Z,0.20
2018-12-12T06:52:46.542Z,0.20
2018-12-12T06:55:22.372Z,0.20
2018-12-12T06:57:58.185Z,0.30
2018-12-12T07:00:33.969Z,0.30
2018-12-12T07:03:09.886Z,0.20
2018-12-12T07:05:45.725Z,0.20
2018-12-12T07:08:21.669Z,0.20
2018-12-12T07:10:57.445Z,0.10
2018-12-12T07:13:35.874Z,0.10
2018-12-12T07:16:11.377Z,0.10
2018-12-12T07:18:47.481Z,0.10
2018-12-12T07:21:23.652Z,0.20
2018-12-12T07:23:59.548Z,0.10
2018-12-12T07:26:35.314Z,0.10
2018-12-12T07:29:11.048Z,0.20
2018-12-12T07:31:47.109Z,0.20
2018-12-12T07:34:23.273Z,0.20
2018-12-12T07:36:59.991Z,0.30
2018-12-12T07:39:35.772Z,0.30
2018-12-12T07:42:11.781Z,0.40
2018-12-12T07:45:07.253Z,0.40
2018-12-12T07:47:45.418Z,0.50
2018-12-12T07:50:42.074Z,0.50
2018-12-12T07:53:35.035Z,0.60
2018-12-12T07:56:11.340Z,0.70
2018-12-12T07:58:47.414Z,0.70
2018-12-12T08:01:23.040Z,0.80
2018-12-12T08:03:58.784Z,0.80
2018-12-12T08:06:35.141Z,0.80
2018-12-12T08:09:11.395Z,0.90
2018-12-12T08:11:47.257Z,0.90
2018-12-12T08:14:23.207Z,0.90
2018-12-12T08:16:59.058Z,1.00
2018-12-12T08:19:34.945Z,1.00
2018-12-12T08:22:10.955Z,1.10
2018-12-12T08:24:46.770Z,1.30
2018-12-12T08:27:22.845Z,1.30
2018-12-12T08:29:58.581Z,1.50
2018-12-12T08:32:34.642Z,1.70
2018-12-12T08:35:10.583Z,1.90
2018-12-12T08:37:46.443Z,2.10
2018-12-12T08:40:22.269Z,2.30
2018-12-12T08:42:58.552Z,2.50
2018-12-12T08:45:34.336Z,2.70
2018-12-12T08:48:10.291Z,2.90
2018-12-12T08:50:46.149Z,3.10
2018-12-12T08:53:22.678Z,3.20
2018-12-12T08:55:58.585Z,3.30
2018-12-12T08:58:34.625Z,3.40
2018-12-12T09:01:10.389Z,3.40
2018-12-12T09:03:46.133Z,3.60
2018-12-12T09:06:21.919Z,3.80
2018-12-12T09:08:57.640Z,4.00
2018-12-12T09:11:33.879Z,4.10
2018-12-12T09:14:09.786Z,4.40
2018-12-12T09:16:47.058Z,4.60
2018-12-12T09:19:22.971Z,4.90
2018-12-12T09:21:59.647Z,5.10
2018-12-12T09:24:35.497Z,5.20
2018-12-12T09:27:11.559Z,5.40
2018-12-12T09:29:47.558Z,5.70
2018-12-12T09:32:25.521Z,6.00
2018-12-12T09:35:03.483Z,6.40
2018-12-12T09:37:39.796Z,7.30
2018-12-12T09:40:15.560Z,8.20
2018-12-12T09:42:51.299Z,9.00
2018-12-12T09:45:27.055Z,10.00
2018-12-12T09:48:03.065Z,10.80
2018-12-12T09:50:40.085Z,11.10
2018-12-12T09:53:18.041Z,10.90
2018-12-12T09:55:54.326Z,10.40
2018-12-12T09:58:30.123Z,9.70
2018-12-12T10:01:06.460Z,9.10
2018-12-12T10:03:42.723Z,8.70
2018-12-12T10:06:18.611Z,8.30
2018-12-12T10:08:55.336Z,8.20
2018-12-12T10:11:31.451Z,8.80
2018-12-12T10:14:07.764Z,9.60
2018-12-12T10:16:43.801Z,10.10
2018-12-12T10:19:20.085Z,11.40
2018-12-12T10:21:56.740Z,13.30
2018-12-12T10:24:33.565Z,14.20
2018-12-12T10:27:09.633Z,14.30
2018-12-12T10:29:45.668Z,13.10
2018-12-12T10:32:21.742Z,11.70
2018-12-12T10:34:57.983Z,10.80
2018-12-12T10:37:34.035Z,9.70
2018-12-12T10:40:10.172Z,9.60
2018-12-12T10:42:47.284Z,10.00
2018-12-12T10:45:23.176Z,10.20
2018-12-12T10:47:59.223Z,10.10
2018-12-12T10:50:36.489Z,10.10
2018-12-12T10:53:12.613Z,10.20
2018-12-12T10:55:49.056Z,9.80
2018-12-12T10:58:24.839Z,9.60
2018-12-12T11:01:12.110Z,8.90
2018-12-12T11:03:51.545Z,8.70
2018-12-12T11:06:27.472Z,8.50
2018-12-12T11:09:04.611Z,8.00
2018-12-12T11:11:42.793Z,7.80
2018-12-12T11:14:19.187Z,7.50
2018-12-12T11:16:55.232Z,7.60
2018-12-12T11:19:30.964Z,7.40
2018-12-12T11:22:06.905Z,7.40
2018-12-12T11:24:42.775Z,7.40
2018-12-12T11:27:18.777Z,7.60
2018-12-12T11:29:54.637Z,7.60
2018-12-12T11:32:30.541Z,7.80
2018-12-12T11:35:06.499Z,7.40
2018-12-12T11:37:42.426Z,7.00
2018-12-12T11:40:18.390Z,6.70
2018-12-12T11:42:54.780Z,6.50
2018-12-12T11:45:33.065Z,6.30
2018-12-12T11:48:09.036Z,5.80
2018-12-12T11:50:45.119Z,5.80
2018-12-12T11:53:20.965Z,6.00
2018-12-12T11:55:56.873Z,6.20
2018-12-12T11:58:33.056Z,6.40
2018-12-12T12:01:08.885Z,6.40
2018-12-12T12:03:44.589Z,6.10
2018-12-12T12:06:20.623Z,6.10
2018-12-12T12:08:57.613Z,6.00
2018-12-12T12:11:34.587Z,6.10
2018-12-12T12:14:12.394Z,6.10
2018-12-12T12:16:48.119Z,6.00
2018-12-12T12:19:23.986Z,6.10
2018-12-12T12:22:00.269Z,6.20
2018-12-12T12:24:36.165Z,6.10
2018-12-12T12:27:12.361Z,5.90
2018-12-12T12:29:48.439Z,5.80
2018-12-12T12:32:24.273Z,5.70
2018-12-12T12:35:00.993Z,5.60
2018-12-12T12:37:36.573Z,5.60
2018-12-12T12:40:12.483Z,5.70
2018-12-12T12:42:48.522Z,5.90
2018-12-12T12:45:24.496Z,6.00
2018-12-12T12:48:00.529Z,6.20
2018-12-12T12:50:36.310Z,6.20
2018-12-12T12:53:12.169Z,6.20
2018-12-12T12:55:48.471Z,5.90
2018-12-12T12:58:24.602Z,5.90
2018-12-12T13:01:00.872Z,5.80
2018-12-12T13:03:36.739Z,5.70
2018-12-12T13:06:15.130Z,5.50
2018-12-12T13:08:51.501Z,5.40
2018-12-12T13:11:27.513Z,5.50
2018-12-12T13:14:03.394Z,5.50
2018-12-12T13:16:39.146Z,5.40
2018-12-12T13:19:15.163Z,5.40
2018-12-12T13:21:51.035Z,5.40
2018-12-12T13:24:27.276Z,5.30
2018-12-12T13:27:03.665Z,5.10
2018-12-12T13:29:40.239Z,5.20
2018-12-12T13:32:16.256Z,5.10
2018-12-12T13:34:52.184Z,5.10
2018-12-12T13:37:28.409Z,5.20
2018-12-12T13:42:35.413Z,5.20
2018-12-12T13:45:11.337Z,4.90
2018-12-12T13:47:48.381Z,5.00
2018-12-12T13:50:24.798Z,5.10
2018-12-12T13:53:01.296Z,5.00
2018-12-12T13:55:40.819Z,4.80
2018-12-12T13:58:17.674Z,4.90
2018-12-12T14:00:53.660Z,4.90
2018-12-12T14:03:31.886Z,5.00
2018-12-12T14:06:09.531Z,5.00
2018-12-12T14:08:45.226Z,5.10
2018-12-12T14:11:21.986Z,5.00
2018-12-12T14:13:57.836Z,5.00
2018-12-12T14:16:34.154Z,5.00
2018-12-12T14:19:10.080Z,5.00
2018-12-12T14:21:46.409Z,4.80
2018-12-12T14:24:23.488Z,4.80
2018-12-12T14:26:59.460Z,4.70
2018-12-12T14:29:37.553Z,4.70
2018-12-12T14:32:15.057Z,4.70
2018-12-12T14:34:51.914Z,4.60
2018-12-12T14:37:28.054Z,4.50
2018-12-12T14:40:04.951Z,4.50
2018-12-12T14:42:41.164Z,4.30
2018-12-12T14:45:17.408Z,4.30
2018-12-12T14:47:53.112Z,4.30
2018-12-12T14:50:30.631Z,4.20
2018-12-12T14:53:06.790Z,4.20
2018-12-12T14:55:43.588Z,4.30
2018-12-12T14:58:19.678Z,4.30
2018-12-12T15:00:56.806Z,4.30
2018-12-12T15:03:32.860Z,4.40
2018-12-12T15:06:10.028Z,4.40
2018-12-12T15:08:46.952Z,4.40
2018-12-12T15:11:23.276Z,4.40
2018-12-12T15:13:59.440Z,4.30
2018-12-12T15:16:35.419Z,4.20
2018-12-12T15:19:11.586Z,4.10
2018-12-12T15:21:48.063Z,4.10
2018-12-12T15:24:23.912Z,4.00
2018-12-12T15:27:00.478Z,3.90
2018-12-12T15:29:36.729Z,3.90
2018-12-12T15:32:12.840Z,3.80
2018-12-12T15:34:48.517Z,3.80
2018-12-12T15:37:24.461Z,3.70
2018-12-12T15:39:59.929Z,3.60
2018-12-12T15:42:35.616Z,3.60
2018-12-12T15:45:11.292Z,3.50
2018-12-12T15:47:47.189Z,3.50
2018-12-12T15:50:22.737Z,3.40
2018-12-12T15:52:58.376Z,3.40
2018-12-12T15:55:33.870Z,3.30
2018-12-12T15:58:09.498Z,3.30
2018-12-12T16:00:45.195Z,3.10
2018-12-12T16:03:21.048Z,3.00
2018-12-12T16:05:56.552Z,2.90
2018-12-12T16:08:31.999Z,2.80
2018-12-12T16:11:08.344Z,2.60
2018-12-12T16:13:44.329Z,2.50
2018-12-12T16:16:21.586Z,2.20
2018-12-12T16:18:58.134Z,2.10
2018-12-12T16:21:33.653Z,1.90
2018-12-12T16:24:09.923Z,1.80
2018-12-12T16:26:45.799Z,1.60
2018-12-12T16:29:21.604Z,1.50
2018-12-12T16:31:57.274Z,1.40
2018-12-12T16:34:32.795Z,1.30
2018-12-12T16:37:08.307Z,1.20
2018-12-12T16:39:43.884Z,1.20
2018-12-12T16:42:19.323Z,1.10
2018-12-12T16:44:57.089Z,1.10
2018-12-12T16:47:38.376Z,1.00
2018-12-12T16:50:13.790Z,0.90
2018-12-12T16:52:49.405Z,0.90
2018-12-12T16:55:24.976Z,0.90
2018-12-12T16:58:00.518Z,0.80
2018-12-12T17:00:36.191Z,0.80
2018-12-12T17:03:11.788Z,0.70
2018-12-12T17:05:47.416Z,0.50
2018-12-12T17:08:23.544Z,0.50
2018-12-12T17:13:26.238Z,0.40
2018-12-12T17:16:02.205Z,0.10
2018-12-12T17:18:38.347Z,0.00
2018-12-12T17:21:20.024Z,0.00
2018-12-12T17:23:55.681Z,0.00
2018-12-12T17:26:31.428Z,-0.10
2018-12-12T17:29:07.229Z,-0.10
2018-12-12T17:31:42.863Z,-0.10
2018-12-12T17:34:18.340Z,-0.20
2018-12-12T17:36:54.531Z,-0.20
2018-12-12T17:39:30.167Z,-0.30
2018-12-12T17:42:06.409Z,-0.20
2018-12-12T17:44:43.340Z,-0.20
2018-12-12T17:47:19.897Z,-0.20
2018-12-12T17:49:55.780Z,-0.10
2018-12-12T17:52:32.011Z,-0.10
2018-12-12T17:55:09.783Z,-0.10
2018-12-12T17:57:45.824Z,-0.10
2018-12-12T18:00:22.142Z,-0.20
2018-12-12T18:03:00.960Z,-0.20
2018-12-12T18:06:00.019Z,-0.30
2018-12-12T18:08:36.265Z,-0.30
2018-12-12T18:11:12.030Z,-0.30
2018-12-12T18:13:51.456Z,-0.20
2018-12-12T18:16:30.111Z,-0.20
2018-12-12T18:19:06.419Z,-0.30
2018-12-12T18:21:44.229Z,-0.30
2018-12-12T18:24:22.239Z,-0.30
2018-12-12T18:26:59.970Z,-0.30
2018-12-12T18:29:36.062Z,-0.30
2018-12-12T18:32:14.196Z,-0.20
2018-12-12T18:34:55.897Z,-0.20
2018-12-12T18:37:32.042Z,-0.10
2018-12-12T18:40:08.647Z,-0.10
2018-12-12T18:42:47.476Z,-0.10
2018-12-12T18:45:23.611Z,0.00
2018-12-12T18:47:59.965Z,0.00
2018-12-12T18:50:38.229Z,-0.10
2018-12-12T18:53:31.782Z,-0.10
2018-12-12T18:56:09.773Z,-0.10
2018-12-12T18:58:45.453Z,-0.10
2018-12-12T19:01:21.672Z,-0.10
2018-12-12T19:03:57.524Z,-0.10
2018-12-12T19:06:33.308Z,-0.10
2018-12-12T19:09:09.327Z,0.00
2018-12-12T19:11:48.370Z,0.10
2018-12-12T19:14:24.633Z,0.00
2018-12-12T19:17:00.511Z,0.10
2018-12-12T19:19:36.529Z,0.20
2018-12-12T19:22:12.723Z,0.30
2018-12-12T19:24:48.705Z,0.30
2018-12-12T19:27:24.938Z,0.40
2018-12-12T19:30:00.883Z,0.50
2018-12-12T19:32:37.341Z,0.60
2018-12-12T19:35:20.681Z,0.60
2018-12-12T19:37:56.751Z,0.60
2018-12-12T19:40:33.299Z,0.50
2018-12-12T19:43:10.085Z,0.40
2018-12-12T19:45:46.991Z,0.40
2018-12-12T19:48:24.153Z,0.40
2018-12-12T19:51:00.465Z,0.30
2018-12-12T19:53:36.235Z,0.20
2018-12-12T19:56:12.615Z,0.20
2018-12-12T19:58:48.643Z,0.20
2018-12-12T20:01:25.213Z,0.30
2018-12-12T20:04:01.641Z,0.30
2018-12-12T20:06:38.657Z,0.30
2018-12-12T20:09:15.631Z,0.30
2018-12-12T20:11:52.416Z,0.40
2018-12-12T20:14:28.747Z,0.40
2018-12-12T20:17:05.956Z,0.50
2018-12-12T20:19:42.920Z,0.40
2018-12-12T20:22:19.886Z,0.50
2018-12-12T20:24:56.495Z,0.50
2018-12-12T20:27:33.536Z,0.50
2018-12-12T20:30:10.254Z,0.50
2018-12-12T20:32:47.736Z,0.50
2018-12-12T20:35:24.501Z,0.50
2018-12-12T20:38:01.114Z,0.60
2018-12-12T20:40:37.995Z,0.60
2018-12-12T20:43:14.754Z,0.60
2018-12-12T20:45:52.082Z,0.70
2018-12-12T20:48:29.973Z,0.70
2018-12-12T20:51:06.803Z,0.80
2018-12-12T20:53:43.336Z,0.80
2018-12-12T20:56:20.170Z,0.80
2018-12-12T20:58:56.959Z,0.80
2018-12-12T21:01:35.336Z,0.80
2018-12-12T21:04:12.481Z,0.80
2018-12-12T21:06:49.672Z,0.80
2018-12-12T21:09:26.291Z,0.80
2018-12-12T21:12:03.574Z,0.80
2018-12-12T21:14:39.736Z,0.70
2018-12-12T21:17:16.287Z,0.70
2018-12-12T21:19:52.110Z,0.60
2018-12-12T21:22:28.136Z,0.50
2018-12-12T21:25:05.057Z,0.50
2018-12-12T21:27:41.074Z,0.40
2018-12-12T21:30:17.460Z,0.40
2018-12-12T21:32:54.099Z,0.40
2018-12-12T21:35:30.429Z,0.40
2018-12-12T21:38:06.646Z,0.40
2018-12-12T21:40:42.808Z,0.30
2018-12-12T21:43:18.822Z,0.30
2018-12-12T21:45:54.953Z,0.30
2018-12-12T21:48:30.816Z,0.30
2018-12-12T21:51:06.631Z,0.40
2018-12-12T21:53:42.496Z,0.50
2018-12-12T21:56:18.203Z,0.40
2018-12-12T21:58:54.003Z,0.50
2018-12-12T22:01:29.758Z,0.50
2018-12-12T22:04:05.382Z,0.50
2018-12-12T22:06:41.282Z,0.60
2018-12-12T22:09:17.193Z,0.70
2018-12-12T22:11:52.939Z,0.60
2018-12-12T22:14:28.816Z,0.70
2018-12-12T22:17:04.522Z,0.70
2018-12-12T22:19:40.331Z,0.70
2018-12-12T22:22:16.061Z,0.70
2018-12-12T22:24:51.684Z,0.70
2018-12-12T22:27:27.432Z,0.70
2018-12-12T22:30:03.503Z,0.70
2018-12-12T22:32:39.385Z,0.70
2018-12-12T22:35:14.987Z,0.80
2018-12-12T22:37:50.624Z,0.80
2018-12-12T22:40:26.631Z,0.80
2018-12-12T22:43:02.413Z,0.90
2018-12-12T22:45:38.431Z,1.00
2018-12-12T22:48:20.332Z,1.00
2018-12-12T22:50:52.103Z,1.00
2018-12-12T22:53:27.872Z,1.00
2018-12-12T22:56:03.645Z,0.90
2018-12-12T22:58:39.347Z,1.00
2018-12-12T23:01:24.518Z,0.90
2018-12-12T23:04:00.364Z,1.00
2018-12-12T23:06:36.142Z,1.00
2018-12-12T23:09:11.773Z,1.00
2018-12-12T23:11:47.507Z,1.10
2018-12-12T23:14:23.066Z,1.00
2018-12-12T23:16:58.856Z,1.00
2018-12-12T23:19:35.088Z,0.90
2018-12-12T23:22:10.804Z,0.90
2018-12-12T23:24:46.984Z,0.90
2018-12-12T23:27:22.778Z,0.90
2018-12-12T23:29:58.514Z,0.90
2018-12-12T23:32:34.556Z,0.80
2018-12-12T23:35:10.297Z,0.80
2018-12-12T23:37:46.373Z,0.80
2018-12-12T23:40:22.114Z,0.80
2018-12-12T23:42:57.884Z,0.80
2018-12-12T23:45:33.812Z,0.80
2018-12-12T23:48:09.697Z,0.70
2018-12-12T23:50:45.285Z,0.70
2018-12-12T23:53:21.486Z,0.70
2018-12-12T23:55:57.238Z,0.70
2018-12-12T23:58:33.000Z,0.70
